sensor_id;sensor_type;location;lat;lon;timestamp;P1;durP1;ratioP1;P2;durP2;ratioP2
25932;SDS011;13731;51.166;4.474;2022-08-11T00:00:03;24.70;;;23.40;;
25932;SDS011;13731;51.166;4.474;2022-08-11T00:02:37;24.10;;;22.90;;
25932;SDS011;13731;51.166;4.474;2022-08-11T00:05:11;24.35;;;23.02;;
25932;SDS011;13731;51.166;4.474;2022-08-11T00:07:41;25.02;;;23.67;;
25932;SDS011;13731;51.166;4.474;2022-08-11T00:10:11;26.80;;;25.00;;
25932;SDS011;13731;51.166;4.474;2022-08-11T00:12:40;24.65;;;23.50;;
25932;SDS011;13731;51.166;4.474;2022-08-11T00:15:08;23.10;;;21.80;;
25932;SDS011;13731;51.166;4.474;2022-08-11T00:17:35;23.83;;;22.52;;
25932;SDS011;13731;51.166;4.474;2022-08-11T00:20:04;23.45;;;22.27;;
25932;SDS011;13731;51.166;4.474;2022-08-11T00:22:33;23.80;;;22.40;;
25932;SDS011;13731;51.166;4.474;2022-08-11T00:25:09;24.85;;;23.45;;
25932;SDS011;13731;51.166;4.474;2022-08-11T00:27:37;21.92;;;20.73;;
25932;SDS011;13731;51.166;4.474;2022-08-11T00:30:08;20.70;;;19.70;;
25932;SDS011;13731;51.166;4.474;2022-08-11T00:32:36;21.30;;;20.20;;
25932;SDS011;13731;51.166;4.474;2022-08-11T00:35:04;22.75;;;21.63;;
25932;SDS011;13731;51.166;4.474;2022-08-11T00:37:35;24.30;;;23.08;;
25932;SDS011;13731;51.166;4.474;2022-08-11T00:40:07;23.05;;;21.90;;
25932;SDS011;13731;51.166;4.474;2022-08-11T00:42:51;22.45;;;21.20;;
25932;SDS011;13731;51.166;4.474;2022-08-11T00:45:34;19.58;;;18.55;;
25932;SDS011;13731;51.166;4.474;2022-08-11T00:48:18;19.77;;;18.58;;
25932;SDS011;13731;51.166;4.474;2022-08-11T00:54:04;18.77;;;17.77;;
25932;SDS011;13731;51.166;4.474;2022-08-11T00:56:56;16.42;;;15.43;;
25932;SDS011;13731;51.166;4.474;2022-08-11T01:02:25;16.13;;;15.23;;
25932;SDS011;13731;51.166;4.474;2022-08-11T01:36:54;9.40;;;8.60;;
25932;SDS011;13731;51.166;4.474;2022-08-11T01:39:36;8.65;;;8.15;;
25932;SDS011;13731;51.166;4.474;2022-08-11T01:51:22;9.50;;;8.75;;
25932;SDS011;13731;51.166;4.474;2022-08-11T01:59:36;9.93;;;9.32;;
25932;SDS011;13731;51.166;4.474;2022-08-11T02:02:18;9.45;;;8.68;;
25932;SDS011;13731;51.166;4.474;2022-08-11T02:28:30;12.20;;;11.20;;
25932;SDS011;13731;51.166;4.474;2022-08-11T02:31:28;12.60;;;11.68;;
25932;SDS011;13731;51.166;4.474;2022-08-11T02:37:11;13.05;;;12.13;;
25932;SDS011;13731;51.166;4.474;2022-08-11T02:40:29;13.60;;;12.60;;
25932;SDS011;13731;51.166;4.474;2022-08-11T02:53:39;19.90;;;18.80;;
25932;SDS011;13731;51.166;4.474;2022-08-11T02:58:55;19.70;;;18.63;;
25932;SDS011;13731;51.166;4.474;2022-08-11T03:01:50;19.60;;;18.60;;
25932;SDS011;13731;51.166;4.474;2022-08-11T03:04:29;20.08;;;19.10;;
25932;SDS011;13731;51.166;4.474;2022-08-11T03:07:13;23.15;;;21.75;;
25932;SDS011;13731;51.166;4.474;2022-08-11T03:13:24;23.88;;;22.52;;
25932;SDS011;13731;51.166;4.474;2022-08-11T03:19:07;26.08;;;24.67;;
25932;SDS011;13731;51.166;4.474;2022-08-11T03:24:38;30.77;;;29.02;;
25932;SDS011;13731;51.166;4.474;2022-08-11T03:27:32;29.92;;;28.48;;
25932;SDS011;13731;51.166;4.474;2022-08-11T03:30:09;30.35;;;28.70;;
25932;SDS011;13731;51.166;4.474;2022-08-11T03:35:39;33.00;;;31.27;;
25932;SDS011;13731;51.166;4.474;2022-08-11T03:38:18;34.85;;;32.78;;
25932;SDS011;13731;51.166;4.474;2022-08-11T03:43:53;39.20;;;37.10;;
25932;SDS011;13731;51.166;4.474;2022-08-11T04:33:02;22.77;;;21.35;;
25932;SDS011;13731;51.166;4.474;2022-08-11T04:49:48;22.33;;;20.95;;
25932;SDS011;13731;51.166;4.474;2022-08-11T04:53:04;19.30;;;18.30;;
25932;SDS011;13731;51.166;4.474;2022-08-11T04:56:13;19.58;;;18.33;;
25932;SDS011;13731;51.166;4.474;2022-08-11T05:05:34;18.33;;;17.17;;
25932;SDS011;13731;51.166;4.474;2022-08-11T05:17:10;19.98;;;18.27;;
25932;SDS011;13731;51.166;4.474;2022-08-11T05:19:58;19.33;;;17.60;;
25932;SDS011;13731;51.166;4.474;2022-08-11T05:22:49;19.33;;;18.25;;
25932;SDS011;13731;51.166;4.474;2022-08-11T05:25:35;18.40;;;17.05;;
25932;SDS011;13731;51.166;4.474;2022-08-11T05:28:27;16.63;;;15.43;;
25932;SDS011;13731;51.166;4.474;2022-08-11T05:31:14;16.52;;;15.43;;
25932;SDS011;13731;51.166;4.474;2022-08-11T05:34:02;19.00;;;17.58;;
25932;SDS011;13731;51.166;4.474;2022-08-11T05:39:32;18.85;;;17.40;;
25932;SDS011;13731;51.166;4.474;2022-08-11T05:42:24;17.88;;;16.77;;
25932;SDS011;13731;51.166;4.474;2022-08-11T05:45:13;18.60;;;17.20;;
25932;SDS011;13731;51.166;4.474;2022-08-11T05:47:59;18.77;;;17.25;;
25932;SDS011;13731;51.166;4.474;2022-08-11T05:50:57;19.35;;;17.83;;
25932;SDS011;13731;51.166;4.474;2022-08-11T05:53:44;19.23;;;18.10;;
25932;SDS011;13731;51.166;4.474;2022-08-11T05:56:32;20.83;;;19.08;;
25932;SDS011;13731;51.166;4.474;2022-08-11T05:58:59;23.13;;;21.42;;
25932;SDS011;13731;51.166;4.474;2022-08-11T06:01:26;24.08;;;22.20;;
25932;SDS011;13731;51.166;4.474;2022-08-11T06:03:58;22.52;;;21.15;;
25932;SDS011;13731;51.166;4.474;2022-08-11T06:06:39;24.30;;;22.58;;
25932;SDS011;13731;51.166;4.474;2022-08-11T06:09:30;23.13;;;21.63;;
25932;SDS011;13731;51.166;4.474;2022-08-11T06:12:05;22.73;;;20.88;;
25932;SDS011;13731;51.166;4.474;2022-08-11T06:14:33;22.63;;;20.95;;
25932;SDS011;13731;51.166;4.474;2022-08-11T06:17:08;22.88;;;21.27;;
25932;SDS011;13731;51.166;4.474;2022-08-11T06:19:38;22.02;;;20.58;;
25932;SDS011;13731;51.166;4.474;2022-08-11T06:22:10;21.42;;;20.02;;
25932;SDS011;13731;51.166;4.474;2022-08-11T06:24:37;23.25;;;21.40;;
25932;SDS011;13731;51.166;4.474;2022-08-11T06:27:18;23.83;;;21.65;;
25932;SDS011;13731;51.166;4.474;2022-08-11T06:29:46;29.08;;;26.98;;
25932;SDS011;13731;51.166;4.474;2022-08-11T06:34:51;18.67;;;17.30;;
25932;SDS011;13731;51.166;4.474;2022-08-11T06:45:40;29.48;;;27.70;;
25932;SDS011;13731;51.166;4.474;2022-08-11T06:48:18;20.88;;;19.65;;
25932;SDS011;13731;51.166;4.474;2022-08-11T06:50:50;22.23;;;20.50;;
25932;SDS011;13731;51.166;4.474;2022-08-11T06:56:14;22.95;;;21.05;;
25932;SDS011;13731;51.166;4.474;2022-08-11T06:59:05;22.48;;;20.88;;
25932;SDS011;13731;51.166;4.474;2022-08-11T07:01:59;23.10;;;21.00;;
25932;SDS011;13731;51.166;4.474;2022-08-11T07:13:37;26.13;;;24.65;;
25932;SDS011;13731;51.166;4.474;2022-08-11T07:16:27;24.85;;;23.27;;
25932;SDS011;13731;51.166;4.474;2022-08-11T07:18:58;23.98;;;22.40;;
25932;SDS011;13731;51.166;4.474;2022-08-11T07:21:48;23.73;;;22.08;;
25932;SDS011;13731;51.166;4.474;2022-08-11T07:24:42;24.40;;;22.73;;
25932;SDS011;13731;51.166;4.474;2022-08-11T07:30:29;21.35;;;17.80;;
25932;SDS011;13731;51.166;4.474;2022-08-11T07:32:57;23.33;;;21.70;;
25932;SDS011;13731;51.166;4.474;2022-08-11T07:35:32;25.58;;;23.98;;
25932;SDS011;13731;51.166;4.474;2022-08-11T07:38:06;25.63;;;23.55;;
25932;SDS011;13731;51.166;4.474;2022-08-11T07:40:41;23.60;;;22.23;;
25932;SDS011;13731;51.166;4.474;2022-08-11T07:45:40;29.65;;;27.60;;
25932;SDS011;13731;51.166;4.474;2022-08-11T07:48:48;22.90;;;21.52;;
25932;SDS011;13731;51.166;4.474;2022-08-11T07:51:33;20.20;;;19.00;;
25932;SDS011;13731;51.166;4.474;2022-08-11T07:54:22;18.95;;;17.17;;
25932;SDS011;13731;51.166;4.474;2022-08-11T07:56:48;17.70;;;16.70;;
25932;SDS011;13731;51.166;4.474;2022-08-11T07:59:16;18.40;;;16.50;;
25932;SDS011;13731;51.166;4.474;2022-08-11T08:02:02;17.45;;;15.75;;
25932;SDS011;13731;51.166;4.474;2022-08-11T08:04:47;18.10;;;16.90;;
25932;SDS011;13731;51.166;4.474;2022-08-11T08:07:33;19.15;;;17.77;;
25932;SDS011;13731;51.166;4.474;2022-08-11T08:10:20;15.85;;;14.88;;
25932;SDS011;13731;51.166;4.474;2022-08-11T08:13:05;16.95;;;15.82;;
25932;SDS011;13731;51.166;4.474;2022-08-11T08:15:50;18.48;;;17.08;;
25932;SDS011;13731;51.166;4.474;2022-08-11T08:18:37;12.55;;;11.40;;
25932;SDS011;13731;51.166;4.474;2022-08-11T08:21:04;12.20;;;11.35;;
25932;SDS011;13731;51.166;4.474;2022-08-11T08:23:55;11.32;;;10.35;;
25932;SDS011;13731;51.166;4.474;2022-08-11T08:26:22;22.17;;;12.10;;
25932;SDS011;13731;51.166;4.474;2022-08-11T08:29:08;15.52;;;14.07;;
25932;SDS011;13731;51.166;4.474;2022-08-11T08:31:52;18.20;;;16.77;;
25932;SDS011;13731;51.166;4.474;2022-08-11T08:34:21;23.27;;;21.58;;
25932;SDS011;13731;51.166;4.474;2022-08-11T08:36:48;25.27;;;23.00;;
25932;SDS011;13731;51.166;4.474;2022-08-11T08:39:21;32.08;;;30.35;;
25932;SDS011;13731;51.166;4.474;2022-08-11T08:41:48;30.88;;;29.25;;
25932;SDS011;13731;51.166;4.474;2022-08-11T08:44:18;35.17;;;33.13;;
25932;SDS011;13731;51.166;4.474;2022-08-11T08:46:47;35.42;;;33.20;;
25932;SDS011;13731;51.166;4.474;2022-08-11T08:49:18;36.03;;;33.25;;
25932;SDS011;13731;51.166;4.474;2022-08-11T08:51:51;36.40;;;34.00;;
25932;SDS011;13731;51.166;4.474;2022-08-11T08:54:29;30.83;;;29.08;;
25932;SDS011;13731;51.166;4.474;2022-08-11T08:57:03;33.10;;;31.40;;
25932;SDS011;13731;51.166;4.474;2022-08-11T08:59:31;32.38;;;30.10;;
25932;SDS011;13731;51.166;4.474;2022-08-11T09:02:02;38.72;;;35.35;;
25932;SDS011;13731;51.166;4.474;2022-08-11T09:04:30;30.10;;;27.60;;
25932;SDS011;13731;51.166;4.474;2022-08-11T09:07:02;29.95;;;28.05;;
25932;SDS011;13731;51.166;4.474;2022-08-11T09:09:33;23.05;;;21.80;;
25932;SDS011;13731;51.166;4.474;2022-08-11T09:12:01;20.40;;;18.63;;
25932;SDS011;13731;51.166;4.474;2022-08-11T09:14:33;16.45;;;15.32;;
25932;SDS011;13731;51.166;4.474;2022-08-11T09:17:20;15.65;;;14.38;;
25932;SDS011;13731;51.166;4.474;2022-08-11T09:19:48;14.07;;;13.07;;
25932;SDS011;13731;51.166;4.474;2022-08-11T09:22:27;11.88;;;11.05;;
25932;SDS011;13731;51.166;4.474;2022-08-11T09:25:14;12.00;;;10.93;;
25932;SDS011;13731;51.166;4.474;2022-08-11T09:27:59;12.20;;;11.10;;
25932;SDS011;13731;51.166;4.474;2022-08-11T09:30:27;11.68;;;10.68;;
25932;SDS011;13731;51.166;4.474;2022-08-11T09:32:54;13.50;;;11.07;;
25932;SDS011;13731;51.166;4.474;2022-08-11T09:35:22;14.02;;;12.68;;
25932;SDS011;13731;51.166;4.474;2022-08-11T09:37:50;13.77;;;12.77;;
25932;SDS011;13731;51.166;4.474;2022-08-11T09:40:37;18.75;;;17.50;;
25932;SDS011;13731;51.166;4.474;2022-08-11T09:43:04;19.38;;;15.55;;
25932;SDS011;13731;51.166;4.474;2022-08-11T09:45:53;15.45;;;14.52;;
25932;SDS011;13731;51.166;4.474;2022-08-11T09:48:21;17.38;;;16.23;;
25932;SDS011;13731;51.166;4.474;2022-08-11T09:50:50;20.25;;;18.88;;
25932;SDS011;13731;51.166;4.474;2022-08-11T09:53:19;20.58;;;19.35;;
25932;SDS011;13731;51.166;4.474;2022-08-11T09:55:45;20.13;;;18.83;;
25932;SDS011;13731;51.166;4.474;2022-08-11T09:58:16;19.38;;;17.92;;
25932;SDS011;13731;51.166;4.474;2022-08-11T10:00:44;18.05;;;17.02;;
25932;SDS011;13731;51.166;4.474;2022-08-11T10:03:16;17.98;;;16.77;;
25932;SDS011;13731;51.166;4.474;2022-08-11T10:05:48;16.85;;;15.70;;
25932;SDS011;13731;51.166;4.474;2022-08-11T10:08:40;17.27;;;16.05;;
25932;SDS011;13731;51.166;4.474;2022-08-11T10:11:08;17.70;;;16.52;;
25932;SDS011;13731;51.166;4.474;2022-08-11T10:13:42;24.70;;;23.20;;
25932;SDS011;13731;51.166;4.474;2022-08-11T10:16:28;23.10;;;21.58;;
25932;SDS011;13731;51.166;4.474;2022-08-11T10:18:58;18.35;;;16.75;;
25932;SDS011;13731;51.166;4.474;2022-08-11T10:21:40;10.05;;;8.45;;
25932;SDS011;13731;51.166;4.474;2022-08-11T10:24:29;7.35;;;6.65;;
25932;SDS011;13731;51.166;4.474;2022-08-11T10:27:15;6.38;;;5.88;;
25932;SDS011;13731;51.166;4.474;2022-08-11T10:29:41;7.60;;;5.55;;
25932;SDS011;13731;51.166;4.474;2022-08-11T10:32:28;6.80;;;6.30;;
25932;SDS011;13731;51.166;4.474;2022-08-11T10:35:17;8.75;;;7.90;;
25932;SDS011;13731;51.166;4.474;2022-08-11T10:37:45;7.72;;;7.13;;
25932;SDS011;13731;51.166;4.474;2022-08-11T10:40:13;10.10;;;9.43;;
25932;SDS011;13731;51.166;4.474;2022-08-11T10:42:41;13.30;;;12.50;;
25932;SDS011;13731;51.166;4.474;2022-08-11T10:45:27;13.27;;;11.95;;
25932;SDS011;13731;51.166;4.474;2022-08-11T10:48:13;14.98;;;14.07;;
25932;SDS011;13731;51.166;4.474;2022-08-11T10:50:43;16.60;;;15.60;;
25932;SDS011;13731;51.166;4.474;2022-08-11T10:53:29;19.30;;;18.10;;
25932;SDS011;13731;51.166;4.474;2022-08-11T10:56:14;22.02;;;20.63;;
25932;SDS011;13731;51.166;4.474;2022-08-11T10:59:01;22.77;;;20.95;;
25932;SDS011;13731;51.166;4.474;2022-08-11T11:01:30;22.15;;;20.90;;
25932;SDS011;13731;51.166;4.474;2022-08-11T11:03:59;25.05;;;23.48;;
25932;SDS011;13731;51.166;4.474;2022-08-11T11:09:07;30.80;;;29.00;;
25932;SDS011;13731;51.166;4.474;2022-08-11T11:12:23;33.53;;;31.75;;
25932;SDS011;13731;51.166;4.474;2022-08-11T11:14:59;30.75;;;28.95;;
25932;SDS011;13731;51.166;4.474;2022-08-11T11:17:50;27.55;;;25.48;;
25932;SDS011;13731;51.166;4.474;2022-08-11T11:20:35;36.25;;;34.42;;
25932;SDS011;13731;51.166;4.474;2022-08-11T11:23:13;35.72;;;33.72;;
25932;SDS011;13731;51.166;4.474;2022-08-11T11:26:04;35.00;;;33.20;;
25932;SDS011;13731;51.166;4.474;2022-08-11T11:34:00;35.80;;;33.67;;
25932;SDS011;13731;51.166;4.474;2022-08-11T11:36:54;37.90;;;36.03;;
25932;SDS011;13731;51.166;4.474;2022-08-11T11:39:25;36.55;;;34.83;;
25932;SDS011;13731;51.166;4.474;2022-08-11T11:41:53;34.05;;;32.15;;
25932;SDS011;13731;51.166;4.474;2022-08-11T11:44:21;36.83;;;35.08;;
25932;SDS011;13731;51.166;4.474;2022-08-11T11:46:48;32.50;;;30.63;;
25932;SDS011;13731;51.166;4.474;2022-08-11T11:49:19;22.75;;;20.90;;
25932;SDS011;13731;51.166;4.474;2022-08-11T11:51:48;11.77;;;10.77;;
25932;SDS011;13731;51.166;4.474;2022-08-11T11:54:20;8.77;;;6.95;;
25932;SDS011;13731;51.166;4.474;2022-08-11T11:56:52;10.52;;;7.60;;
25932;SDS011;13731;51.166;4.474;2022-08-11T11:59:20;8.15;;;6.55;;
25932;SDS011;13731;51.166;4.474;2022-08-11T12:02:10;8.43;;;7.82;;
25932;SDS011;13731;51.166;4.474;2022-08-11T12:04:43;9.77;;;7.85;;
25932;SDS011;13731;51.166;4.474;2022-08-11T12:07:12;8.50;;;7.80;;
25932;SDS011;13731;51.166;4.474;2022-08-11T12:09:58;7.95;;;7.30;;
25932;SDS011;13731;51.166;4.474;2022-08-11T12:12:24;8.15;;;7.55;;
25932;SDS011;13731;51.166;4.474;2022-08-11T12:15:10;9.25;;;8.50;;
25932;SDS011;13731;51.166;4.474;2022-08-11T12:17:36;9.38;;;8.60;;
25932;SDS011;13731;51.166;4.474;2022-08-11T12:20:03;10.98;;;8.27;;
25932;SDS011;13731;51.166;4.474;2022-08-11T12:22:30;6.80;;;6.40;;
25932;SDS011;13731;51.166;4.474;2022-08-11T12:25:14;6.88;;;5.20;;
25932;SDS011;13731;51.166;4.474;2022-08-11T12:28:01;6.32;;;5.07;;
25932;SDS011;13731;51.166;4.474;2022-08-11T12:30:27;8.02;;;5.45;;
25932;SDS011;13731;51.166;4.474;2022-08-11T12:32:53;5.57;;;5.28;;
25932;SDS011;13731;51.166;4.474;2022-08-11T12:35:21;5.90;;;5.45;;
25932;SDS011;13731;51.166;4.474;2022-08-11T12:37:48;9.55;;;6.57;;
25932;SDS011;13731;51.166;4.474;2022-08-11T12:40:21;12.25;;;8.20;;
25932;SDS011;13731;51.166;4.474;2022-08-11T12:43:12;8.98;;;8.57;;
25932;SDS011;13731;51.166;4.474;2022-08-11T12:45:59;11.63;;;10.70;;
25932;SDS011;13731;51.166;4.474;2022-08-11T12:48:31;15.07;;;13.73;;
25932;SDS011;13731;51.166;4.474;2022-08-11T12:51:19;11.60;;;10.90;;
25932;SDS011;13731;51.166;4.474;2022-08-11T12:56:37;13.18;;;12.02;;
25932;SDS011;13731;51.166;4.474;2022-08-11T12:59:33;14.60;;;13.80;;
25932;SDS011;13731;51.166;4.474;2022-08-11T13:02:19;14.10;;;13.20;;
25932;SDS011;13731;51.166;4.474;2022-08-11T13:05:05;16.35;;;15.27;;
25932;SDS011;13731;51.166;4.474;2022-08-11T13:10:04;11.80;;;10.80;;
25932;SDS011;13731;51.166;4.474;2022-08-11T13:12:32;13.40;;;12.60;;
25932;SDS011;13731;51.166;4.474;2022-08-11T13:17:48;16.05;;;14.75;;
25932;SDS011;13731;51.166;4.474;2022-08-11T13:20:20;16.30;;;15.07;;
25932;SDS011;13731;51.166;4.474;2022-08-11T13:22:48;13.85;;;13.25;;
25932;SDS011;13731;51.166;4.474;2022-08-11T13:25:17;18.10;;;16.85;;
25932;SDS011;13731;51.166;4.474;2022-08-11T13:27:46;17.52;;;16.60;;
25932;SDS011;13731;51.166;4.474;2022-08-11T13:30:14;19.80;;;18.45;;
25932;SDS011;13731;51.166;4.474;2022-08-11T13:33:08;19.40;;;18.58;;
25932;SDS011;13731;51.166;4.474;2022-08-11T13:35:35;19.55;;;18.48;;
25932;SDS011;13731;51.166;4.474;2022-08-11T13:38:01;18.25;;;17.25;;
25932;SDS011;13731;51.166;4.474;2022-08-11T13:40:28;17.40;;;16.40;;
25932;SDS011;13731;51.166;4.474;2022-08-11T13:42:56;23.67;;;22.48;;
25932;SDS011;13731;51.166;4.474;2022-08-11T13:45:23;21.00;;;19.77;;
25932;SDS011;13731;51.166;4.474;2022-08-11T13:47:52;19.30;;;18.17;;
25932;SDS011;13731;51.166;4.474;2022-08-11T13:50:22;21.40;;;20.25;;
25932;SDS011;13731;51.166;4.474;2022-08-11T13:53:09;19.08;;;17.92;;
25932;SDS011;13731;51.166;4.474;2022-08-11T13:55:39;15.77;;;14.80;;
25932;SDS011;13731;51.166;4.474;2022-08-11T13:58:08;10.05;;;9.55;;
25932;SDS011;13731;51.166;4.474;2022-08-11T14:00:35;5.50;;;5.20;;
25932;SDS011;13731;51.166;4.474;2022-08-11T14:03:02;10.07;;;5.40;;
25932;SDS011;13731;51.166;4.474;2022-08-11T14:05:36;5.03;;;4.72;;
25932;SDS011;13731;51.166;4.474;2022-08-11T14:08:25;6.75;;;5.53;;
25932;SDS011;13731;51.166;4.474;2022-08-11T14:10:58;5.32;;;4.93;;
25932;SDS011;13731;51.166;4.474;2022-08-11T14:13:44;7.22;;;4.63;;
25932;SDS011;13731;51.166;4.474;2022-08-11T14:16:17;7.75;;;6.93;;
25932;SDS011;13731;51.166;4.474;2022-08-11T14:18:47;9.15;;;8.55;;
25932;SDS011;13731;51.166;4.474;2022-08-11T14:21:16;7.53;;;7.13;;
25932;SDS011;13731;51.166;4.474;2022-08-11T14:24:01;6.40;;;5.82;;
25932;SDS011;13731;51.166;4.474;2022-08-11T14:26:28;6.68;;;6.07;;
25932;SDS011;13731;51.166;4.474;2022-08-11T14:29:07;8.13;;;6.20;;
25932;SDS011;13731;51.166;4.474;2022-08-11T14:31:35;6.20;;;5.70;;
25932;SDS011;13731;51.166;4.474;2022-08-11T14:34:05;7.35;;;6.00;;
25932;SDS011;13731;51.166;4.474;2022-08-11T14:36:33;7.53;;;6.13;;
25932;SDS011;13731;51.166;4.474;2022-08-11T14:39:10;7.15;;;6.35;;
25932;SDS011;13731;51.166;4.474;2022-08-11T14:41:54;6.50;;;6.10;;
25932;SDS011;13731;51.166;4.474;2022-08-11T14:44:42;6.50;;;6.00;;
25932;SDS011;13731;51.166;4.474;2022-08-11T14:47:34;6.07;;;5.70;;
25932;SDS011;13731;51.166;4.474;2022-08-11T14:50:02;5.78;;;5.28;;
25932;SDS011;13731;51.166;4.474;2022-08-11T14:54:57;7.22;;;5.97;;
25932;SDS011;13731;51.166;4.474;2022-08-11T14:57:42;6.13;;;5.72;;
25932;SDS011;13731;51.166;4.474;2022-08-11T15:00:09;6.35;;;5.88;;
25932;SDS011;13731;51.166;4.474;2022-08-11T15:02:42;6.22;;;5.70;;
25932;SDS011;13731;51.166;4.474;2022-08-11T15:05:34;7.90;;;5.75;;
25932;SDS011;13731;51.166;4.474;2022-08-11T15:08:04;6.60;;;6.07;;
25932;SDS011;13731;51.166;4.474;2022-08-11T15:10:31;5.85;;;5.35;;
25932;SDS011;13731;51.166;4.474;2022-08-11T15:12:57;6.00;;;5.60;;
25932;SDS011;13731;51.166;4.474;2022-08-11T15:15:24;6.70;;;6.10;;
25932;SDS011;13731;51.166;4.474;2022-08-11T15:18:12;6.70;;;6.20;;
25932;SDS011;13731;51.166;4.474;2022-08-11T15:20:41;6.78;;;6.28;;
25932;SDS011;13731;51.166;4.474;2022-08-11T15:23:27;6.28;;;5.57;;
25932;SDS011;13731;51.166;4.474;2022-08-11T15:26:13;5.90;;;5.40;;
25932;SDS011;13731;51.166;4.474;2022-08-11T15:29:07;7.53;;;7.03;;
25932;SDS011;13731;51.166;4.474;2022-08-11T15:31:53;8.52;;;6.80;;
25932;SDS011;13731;51.166;4.474;2022-08-11T15:34:38;6.53;;;5.95;;
25932;SDS011;13731;51.166;4.474;2022-08-11T15:37:24;7.20;;;5.72;;
25932;SDS011;13731;51.166;4.474;2022-08-11T15:40:02;10.38;;;6.43;;
25932;SDS011;13731;51.166;4.474;2022-08-11T15:42:56;8.55;;;5.82;;
25932;SDS011;13731;51.166;4.474;2022-08-11T15:45:45;6.43;;;5.88;;
25932;SDS011;13731;51.166;4.474;2022-08-11T15:48:18;6.82;;;6.32;;
25932;SDS011;13731;51.166;4.474;2022-08-11T15:53:58;12.65;;;6.10;;
25932;SDS011;13731;51.166;4.474;2022-08-11T15:56:28;6.28;;;5.88;;
25932;SDS011;13731;51.166;4.474;2022-08-11T15:58:56;6.03;;;5.63;;
25932;SDS011;13731;51.166;4.474;2022-08-11T16:01:44;5.72;;;5.30;;
25932;SDS011;13731;51.166;4.474;2022-08-11T16:04:31;6.00;;;5.50;;
25932;SDS011;13731;51.166;4.474;2022-08-11T16:07:01;7.75;;;6.68;;
25932;SDS011;13731;51.166;4.474;2022-08-11T16:12:12;6.68;;;6.00;;
25932;SDS011;13731;51.166;4.474;2022-08-11T16:14:41;8.50;;;6.40;;
25932;SDS011;13731;51.166;4.474;2022-08-11T16:17:29;6.68;;;6.25;;
25932;SDS011;13731;51.166;4.474;2022-08-11T16:19:59;6.25;;;5.80;;
25932;SDS011;13731;51.166;4.474;2022-08-11T16:22:31;6.32;;;5.43;;
25932;SDS011;13731;51.166;4.474;2022-08-11T16:25:07;6.97;;;6.30;;
25932;SDS011;13731;51.166;4.474;2022-08-11T16:27:42;6.57;;;6.03;;
25932;SDS011;13731;51.166;4.474;2022-08-11T16:30:12;10.07;;;6.10;;
25932;SDS011;13731;51.166;4.474;2022-08-11T16:32:39;5.63;;;5.22;;
25932;SDS011;13731;51.166;4.474;2022-08-11T16:35:15;7.22;;;6.25;;
25932;SDS011;13731;51.166;4.474;2022-08-11T16:38:01;8.18;;;7.63;;
25932;SDS011;13731;51.166;4.474;2022-08-11T16:40:48;7.85;;;7.25;;
25932;SDS011;13731;51.166;4.474;2022-08-11T16:43:17;7.93;;;7.18;;
25932;SDS011;13731;51.166;4.474;2022-08-11T16:46:03;8.18;;;6.97;;
25932;SDS011;13731;51.166;4.474;2022-08-11T16:48:44;7.53;;;6.80;;
25932;SDS011;13731;51.166;4.474;2022-08-11T16:51:12;7.68;;;6.13;;
25932;SDS011;13731;51.166;4.474;2022-08-11T16:53:39;7.43;;;6.63;;
25932;SDS011;13731;51.166;4.474;2022-08-11T16:56:08;7.07;;;6.45;;
25932;SDS011;13731;51.166;4.474;2022-08-11T16:58:41;8.82;;;7.88;;
25932;SDS011;13731;51.166;4.474;2022-08-11T17:01:29;13.68;;;12.32;;
25932;SDS011;13731;51.166;4.474;2022-08-11T17:04:02;10.85;;;5.97;;
25932;SDS011;13731;51.166;4.474;2022-08-11T17:06:51;9.68;;;9.10;;
25932;SDS011;13731;51.166;4.474;2022-08-11T17:09:36;11.63;;;10.90;;
25932;SDS011;13731;51.166;4.474;2022-08-11T17:12:23;13.82;;;12.60;;
25932;SDS011;13731;51.166;4.474;2022-08-11T17:15:23;15.63;;;14.30;;
25932;SDS011;13731;51.166;4.474;2022-08-11T17:18:09;18.73;;;17.67;;
25932;SDS011;13731;51.166;4.474;2022-08-11T17:21:01;22.83;;;21.38;;
25932;SDS011;13731;51.166;4.474;2022-08-11T17:23:28;24.42;;;23.05;;
25932;SDS011;13731;51.166;4.474;2022-08-11T17:26:26;23.83;;;22.08;;
25932;SDS011;13731;51.166;4.474;2022-08-11T17:29:17;24.88;;;23.75;;
25932;SDS011;13731;51.166;4.474;2022-08-11T17:32:05;35.33;;;33.47;;
25932;SDS011;13731;51.166;4.474;2022-08-11T17:35:04;37.40;;;35.28;;
25932;SDS011;13731;51.166;4.474;2022-08-11T17:37:54;42.03;;;39.72;;
25932;SDS011;13731;51.166;4.474;2022-08-11T17:40:44;40.13;;;38.33;;
25932;SDS011;13731;51.166;4.474;2022-08-11T17:43:37;34.03;;;32.35;;
25932;SDS011;13731;51.166;4.474;2022-08-11T17:46:23;35.65;;;33.95;;
25932;SDS011;13731;51.166;4.474;2022-08-11T17:49:10;34.45;;;32.55;;
25932;SDS011;13731;51.166;4.474;2022-08-11T17:51:37;31.33;;;29.70;;
25932;SDS011;13731;51.166;4.474;2022-08-11T17:54:25;26.92;;;24.77;;
25932;SDS011;13731;51.166;4.474;2022-08-11T17:57:10;19.52;;;18.55;;
25932;SDS011;13731;51.166;4.474;2022-08-11T17:59:56;11.75;;;10.82;;
25932;SDS011;13731;51.166;4.474;2022-08-11T18:05:14;9.75;;;6.38;;
25932;SDS011;13731;51.166;4.474;2022-08-11T18:07:45;6.45;;;5.03;;
25932;SDS011;13731;51.166;4.474;2022-08-11T18:10:33;9.23;;;5.45;;
25932;SDS011;13731;51.166;4.474;2022-08-11T18:13:20;8.57;;;6.15;;
25932;SDS011;13731;51.166;4.474;2022-08-11T18:16:06;6.88;;;6.40;;
25932;SDS011;13731;51.166;4.474;2022-08-11T18:18:52;9.40;;;7.20;;
25932;SDS011;13731;51.166;4.474;2022-08-11T18:21:36;7.88;;;7.32;;
25932;SDS011;13731;51.166;4.474;2022-08-11T18:24:24;11.88;;;6.88;;
25932;SDS011;13731;51.166;4.474;2022-08-11T18:27:12;7.47;;;6.88;;
25932;SDS011;13731;51.166;4.474;2022-08-11T18:32:46;9.93;;;7.70;;
25932;SDS011;13731;51.166;4.474;2022-08-11T18:35:34;7.32;;;6.25;;
25932;SDS011;13731;51.166;4.474;2022-08-11T18:38:19;6.03;;;5.63;;
25932;SDS011;13731;51.166;4.474;2022-08-11T18:41:06;7.15;;;5.78;;
25932;SDS011;13731;51.166;4.474;2022-08-11T18:43:53;5.80;;;5.40;;
25932;SDS011;13731;51.166;4.474;2022-08-11T18:46:40;5.22;;;4.75;;
25932;SDS011;13731;51.166;4.474;2022-08-11T18:49:28;6.32;;;5.70;;
25932;SDS011;13731;51.166;4.474;2022-08-11T18:52:18;8.85;;;5.97;;
25932;SDS011;13731;51.166;4.474;2022-08-11T18:55:04;5.55;;;5.15;;
25932;SDS011;13731;51.166;4.474;2022-08-11T18:57:58;6.97;;;5.90;;
25932;SDS011;13731;51.166;4.474;2022-08-11T19:03:31;6.72;;;5.90;;
25932;SDS011;13731;51.166;4.474;2022-08-11T19:06:19;8.18;;;7.35;;
25932;SDS011;13731;51.166;4.474;2022-08-11T19:09:08;8.82;;;8.32;;
25932;SDS011;13731;51.166;4.474;2022-08-11T19:11:55;10.73;;;10.13;;
25932;SDS011;13731;51.166;4.474;2022-08-11T19:14:41;12.95;;;12.15;;
25932;SDS011;13731;51.166;4.474;2022-08-11T19:17:27;15.48;;;14.43;;
25932;SDS011;13731;51.166;4.474;2022-08-11T19:20:15;17.42;;;16.30;;
25932;SDS011;13731;51.166;4.474;2022-08-11T19:23:02;19.70;;;18.45;;
25932;SDS011;13731;51.166;4.474;2022-08-11T19:25:49;21.83;;;20.65;;
25932;SDS011;13731;51.166;4.474;2022-08-11T19:28:34;21.80;;;20.17;;
25932;SDS011;13731;51.166;4.474;2022-08-11T19:31:21;21.08;;;19.90;;
25932;SDS011;13731;51.166;4.474;2022-08-11T19:34:10;20.52;;;19.05;;
25932;SDS011;13731;51.166;4.474;2022-08-11T19:37:02;18.27;;;17.02;;
25932;SDS011;13731;51.166;4.474;2022-08-11T19:39:48;14.07;;;13.13;;
25932;SDS011;13731;51.166;4.474;2022-08-11T19:42:35;11.43;;;10.68;;
25932;SDS011;13731;51.166;4.474;2022-08-11T19:45:21;10.82;;;9.95;;